Time;durP1;ratioP1;P1;durP2;ratioP2;P2;SDS_P1;SDS_P2;PMS_P1;PMS_P2;Temp;Humidity;BMP_temperature;BMP_pressure;BME280_temperature;BME280_humidity;BME280_pressure;Samples;Min_cycle;Max_cycle;Signal;HPM_P1;HPM_P2
2022/01/08 00:02:03;;;;;;;3.80;1.48;;;4.30;75.00;;;;;;4994734;28;20046;-81
2022/01/08 00:04:29;;;;;;;5.32;1.80;;;4.30;75.00;;;;;;4973895;28;20051;-80
2022/01/08 00:06:56;;;;;;;3.75;1.70;;;4.30;75.10;;;;;;4996582;28;20527;-79
2022/01/08 00:09:22;;;;;;;3.38;1.55;;;4.30;75.10;;;;;;4995751;28;20392;-80
2022/01/08 00:11:48;;;;;;;3.88;2.03;;;4.30;75.10;;;;;;4979567;28;20173;-80
2022/01/08 00:14:15;;;;;;;5.45;2.33;;;4.40;75.20;;;;;;4978476;28;20485;-80
2022/01/08 00:16:40;;;;;;;4.85;1.80;;;4.30;75.20;;;;;;4976339;28;20093;-80
2022/01/08 00:19:07;;;;;;;4.93;2.00;;;4.30;75.20;;;;;;4991790;28;20034;-80
2022/01/08 00:21:33;;;;;;;5.90;2.40;;;4.30;75.10;;;;;;4979289;28;20100;-80
2022/01/08 00:23:59;;;;;;;6.22;2.33;;;4.30;75.10;;;;;;4995355;28;20038;-80
2022/01/08 00:26:25;;;;;;;4.60;2.10;;;4.40;75.10;;;;;;4978904;28;20045;-80
2022/01/08 00:28:51;;;;;;;4.07;2.22;;;4.30;75.00;;;;;;4996552;28;20073;-80
2022/01/08 00:31:16;;;;;;;5.75;1.90;;;4.30;75.00;;;;;;4972818;28;20041;-80
2022/01/08 00:33:42;;;;;;;5.70;2.20;;;4.30;75.00;;;;;;4973803;28;20485;-80
2022/01/08 00:36:08;;;;;;;4.97;2.35;;;4.40;75.10;;;;;;4989162;28;20405;-80
2022/01/08 00:38:34;;;;;;;5.28;3.38;;;4.30;75.00;;;;;;4983521;28;20050;-80
2022/01/08 00:41:00;;;;;;;4.65;2.60;;;4.30;75.00;;;;;;4994235;28;20195;-80
2022/01/08 00:43:26;;;;;;;5.40;2.47;;;4.30;75.00;;;;;;4996624;28;20114;-80
2022/01/08 00:45:51;;;;;;;10.27;3.13;;;4.30;74.90;;;;;;4977664;28;20046;-80
2022/01/08 00:48:18;;;;;;;8.77;3.30;;;4.30;74.90;;;;;;4995124;28;20050;-80
2022/01/08 00:50:43;;;;;;;4.47;2.50;;;4.30;74.90;;;;;;4977336;28;20049;-80
2022/01/08 00:53:09;;;;;;;7.55;3.40;;;4.30;74.90;;;;;;4977019;28;20046;-81
2022/01/08 00:55:35;;;;;;;6.15;2.92;;;4.30;74.90;;;;;;4995349;28;20434;-80
2022/01/08 00:58:00;;;;;;;7.22;3.25;;;4.30;74.90;;;;;;4995766;28;20038;-81
2022/01/08 01:00:26;;;;;;;3.53;2.80;;;4.30;74.90;;;;;;4993841;28;20042;-79
2022/01/08 01:02:53;;;;;;;5.13;3.00;;;4.30;75.30;;;;;;4992239;28;20410;-80
2022/01/08 01:05:20;;;;;;;5.53;3.40;;;4.40;74.90;;;;;;4995677;28;20045;-80
2022/01/08 01:07:46;;;;;;;8.77;4.45;;;4.30;74.90;;;;;;4987573;28;20121;-80
2022/01/08 01:10:12;;;;;;;7.60;4.22;;;4.30;74.80;;;;;;4977870;28;20137;-81
2022/01/08 01:12:38;;;;;;;6.60;4.15;;;4.30;74.80;;;;;;4977346;28;20516;-80
2022/01/08 01:15:05;;;;;;;6.93;4.07;;;4.30;74.80;;;;;;4978083;28;20034;-79
2022/01/08 01:17:31;;;;;;;5.75;4.30;;;4.30;75.10;;;;;;4996136;28;20141;-80
2022/01/08 01:19:57;;;;;;;7.90;4.75;;;4.30;74.70;;;;;;4994981;28;20573;-80
2022/01/08 01:22:28;;;;;;;7.25;4.40;;;4.20;74.50;;;;;;4994076;28;20046;-81
2022/01/08 01:25:01;;;;;;;8.73;4.43;;;4.20;74.50;;;;;;4994658;28;20085;-80
2022/01/08 01:30:04;;;;;;;7.13;4.90;;;4.20;74.50;;;;;;4988152;28;20053;-79
2022/01/08 01:48:55;;;;;;;8.80;4.13;;;3.90;74.10;;;;;;4977049;28;20046;-79
2022/01/08 01:51:23;;;;;;;9.73;5.05;;;3.90;74.30;;;;;;4984943;28;20402;-79
2022/01/08 01:53:49;;;;;;;8.40;4.55;;;3.90;74.40;;;;;;4977746;28;20065;-79
2022/01/08 01:56:17;;;;;;;7.70;4.18;;;3.90;74.50;;;;;;4984630;28;20034;-80
2022/01/08 01:58:42;;;;;;;8.07;4.28;;;3.90;74.50;;;;;;4995523;28;20053;-80
2022/01/08 02:01:08;;;;;;;8.45;4.25;;;3.80;74.50;;;;;;4994380;28;20394;-80
2022/01/08 02:03:34;;;;;;;8.55;4.55;;;3.80;74.70;;;;;;4995166;28;20038;-80
2022/01/08 02:06:00;;;;;;;6.43;3.25;;;3.80;74.80;;;;;;4974080;28;20082;-81
2022/01/08 02:08:27;;;;;;;6.97;3.80;;;3.80;75.00;;;;;;4975480;28;20443;-80
2022/01/08 02:10:53;;;;;;;8.32;3.83;;;3.80;75.00;;;;;;4986826;28;20121;-80
2022/01/08 02:13:27;;;;;;;6.60;4.00;;;3.80;75.20;;;;;;4992026;28;20078;-80
2022/01/08 02:15:54;;;;;;;6.87;3.07;;;3.80;75.30;;;;;;4993347;28;20479;-80
2022/01/08 02:18:27;;;;;;;5.28;3.20;;;3.80;75.30;;;;;;4994523;28;20046;-79
2022/01/08 02:20:58;;;;;;;9.25;3.53;;;3.80;75.50;;;;;;4994678;28;20042;-80
2022/01/08 02:23:24;;;;;;;9.80;4.18;;;3.80;75.50;;;;;;4991931;28;20125;-81
2022/01/08 02:25:51;;;;;;;7.10;4.03;;;3.90;75.50;;;;;;4986950;28;20042;-79
2022/01/08 02:28:17;;;;;;;5.38;3.03;;;3.90;75.50;;;;;;4994146;28;20042;-80
2022/01/08 02:30:43;;;;;;;5.20;3.10;;;3.90;75.50;;;;;;4993364;28;20112;-79
2022/01/08 02:33:10;;;;;;;7.72;3.42;;;3.90;75.50;;;;;;4970980;28;20047;-80
2022/01/08 02:35:35;;;;;;;7.20;3.10;;;3.90;75.50;;;;;;4978815;28;20065;-80
2022/01/08 02:38:02;;;;;;;6.50;2.63;;;3.90;75.50;;;;;;4980135;28;20085;-80
2022/01/08 02:40:28;;;;;;;6.60;2.83;;;3.90;75.50;;;;;;4974968;28;20050;-80
2022/01/08 02:43:04;;;;;;;7.15;2.60;;;3.90;75.50;;;;;;4974506;28;20133;-80
2022/01/08 02:45:31;;;;;;;5.75;2.72;;;3.90;75.50;;;;;;4994138;28;20046;-80
2022/01/08 02:47:57;;;;;;;6.22;2.22;;;3.90;75.50;;;;;;4964343;28;20042;-80
2022/01/08 02:50:24;;;;;;;4.32;2.55;;;3.90;75.50;;;;;;4972437;28;20508;-80
2022/01/08 02:52:50;;;;;;;4.72;2.20;;;3.90;75.50;;;;;;4985120;28;20074;-80
2022/01/08 02:55:19;;;;;;;4.30;2.17;;;3.90;75.50;;;;;;4974820;28;20514;-80
2022/01/08 02:57:45;;;;;;;5.53;2.63;;;4.00;75.60;;;;;;4973129;28;20378;-80
2022/01/08 03:00:13;;;;;;;3.38;1.85;;;3.90;75.50;;;;;;4990188;28;20042;-80
2022/01/08 03:02:44;;;;;;;4.90;2.00;;;3.90;75.60;;;;;;4975078;28;20076;-80
2022/01/08 03:05:11;;;;;;;4.95;1.88;;;4.00;75.70;;;;;;4977004;28;20077;-80
2022/01/08 03:07:41;;;;;;;5.32;2.17;;;4.00;75.70;;;;;;4972828;28;20486;-80
2022/01/08 03:10:10;;;;;;;5.00;2.00;;;4.00;75.60;;;;;;4994196;28;20062;-80
2022/01/08 03:12:40;;;;;;;3.35;1.70;;;4.00;75.60;;;;;;4991923;28;20146;-80
2022/01/08 03:15:09;;;;;;;4.65;2.00;;;4.00;75.60;;;;;;4993949;28;20051;-80
2022/01/08 03:17:34;;;;;;;4.60;1.73;;;4.00;75.60;;;;;;4972536;28;20053;-80
2022/01/08 03:20:05;;;;;;;6.97;1.98;;;4.00;75.50;;;;;;4992397;28;20046;-80
2022/01/08 03:22:31;;;;;;;5.13;2.50;;;4.00;75.50;;;;;;4986452;28;20046;-80
2022/01/08 03:24:57;;;;;;;7.05;2.97;;;4.00;75.50;;;;;;4957333;28;20429;-80
2022/01/08 03:27:23;;;;;;;7.00;2.95;;;4.00;75.50;;;;;;4983698;28;20130;-80
2022/01/08 03:29:49;;;;;;;5.82;3.50;;;4.00;75.40;;;;;;4993889;28;20053;-80
2022/01/08 03:32:14;;;;;;;6.55;3.15;;;4.00;75.40;;;;;;4985055;28;20074;-80
2022/01/08 03:34:40;;;;;;;6.30;2.97;;;3.90;75.30;;;;;;4975816;28;20075;-80
2022/01/08 03:37:06;;;;;;;5.78;2.90;;;4.00;75.30;;;;;;4968416;28;20478;-80
2022/01/08 03:39:32;;;;;;;9.48;3.78;;;3.90;75.40;;;;;;4987001;28;20042;-78
2022/01/08 03:41:57;;;;;;;6.00;3.28;;;4.00;75.50;;;;;;4989802;28;20050;-80
2022/01/08 03:44:23;;;;;;;10.85;4.38;;;4.00;75.50;;;;;;4992278;28;20046;-80
2022/01/08 03:46:49;;;;;;;8.55;4.72;;;3.90;75.40;;;;;;4976310;28;20050;-80
2022/01/08 03:49:25;;;;;;;7.22;4.35;;;3.90;75.40;;;;;;4993450;28;20042;-80
2022/01/08 03:51:56;;;;;;;9.90;4.43;;;3.90;75.40;;;;;;4991786;28;20039;-80
2022/01/08 03:54:22;;;;;;;8.57;4.30;;;3.90;75.40;;;;;;4975570;28;20399;-79
2022/01/08 03:56:49;;;;;;;8.27;3.90;;;3.90;75.40;;;;;;4965028;28;20042;-79
2022/01/08 03:59:15;;;;;;;7.25;4.25;;;3.90;75.40;;;;;;4973065;28;20050;-80
2022/01/08 04:01:41;;;;;;;7.03;4.15;;;4.00;75.40;;;;;;4991806;28;20039;-80
2022/01/08 04:04:06;;;;;;;8.40;4.00;;;3.90;75.40;;;;;;4974047;28;20035;-80
2022/01/08 04:06:32;;;;;;;7.88;4.00;;;3.90;75.30;;;;;;4993862;28;20046;-80
2022/01/08 04:08:58;;;;;;;8.38;3.67;;;3.90;75.20;;;;;;4992805;28;20561;-80
2022/01/08 04:11:26;;;;;;;7.55;3.30;;;3.90;75.20;;;;;;4995538;28;20043;-80
2022/01/08 04:13:53;;;;;;;7.47;3.90;;;3.90;75.20;;;;;;4987674;28;20102;-79
2022/01/08 04:16:24;;;;;;;5.57;3.60;;;3.90;75.20;;;;;;4979937;28;20085;-80
2022/01/08 04:18:50;;;;;;;9.02;3.60;;;3.90;75.60;;;;;;4992497;28;20046;-80
2022/01/08 04:23:47;;;;;;;8.25;4.13;;;3.90;75.20;;;;;;4974504;28;20429;-79
2022/01/08 04:26:12;;;;;;;12.45;4.28;;;3.90;75.20;;;;;;4979108;28;20133;-80
2022/01/08 04:28:38;;;;;;;7.63;3.47;;;3.90;75.10;;;;;;4995733;28;20038;-79
2022/01/08 04:31:04;;;;;;;8.32;3.88;;;3.90;75.10;;;;;;4978752;28;20043;-79
2022/01/08 04:33:29;;;;;;;6.78;3.15;;;3.90;75.10;;;;;;4969640;28;20049;-79
2022/01/08 04:35:55;;;;;;;5.03;2.88;;;3.90;75.10;;;;;;4992778;28;20039;-79
2022/01/08 04:38:21;;;;;;;7.03;3.20;;;3.80;75.10;;;;;;4978967;28;20073;-79
2022/01/08 04:40:47;;;;;;;7.70;3.15;;;3.80;75.10;;;;;;4996314;28;20422;-79
2022/01/08 04:43:13;;;;;;;6.43;2.90;;;3.80;75.20;;;;;;4971977;28;20057;-79
2022/01/08 04:45:39;;;;;;;10.43;3.63;;;3.80;75.20;;;;;;4995141;28;20050;-79
2022/01/08 04:48:06;;;;;;;9.52;3.28;;;3.80;75.20;;;;;;4995713;28;20039;-79
2022/01/08 04:50:32;;;;;;;9.25;3.08;;;3.80;75.20;;;;;;4994874;28;20042;-79
2022/01/08 04:52:58;;;;;;;5.68;2.90;;;3.80;75.20;;;;;;4995350;28;20124;-80
2022/01/08 04:55:25;;;;;;;6.00;2.97;;;3.80;75.20;;;;;;4994103;28;20581;-79
2022/01/08 04:57:50;;;;;;;6.35;2.70;;;3.80;75.30;;;;;;4978242;28;20042;-79
2022/01/08 05:00:18;;;;;;;7.57;2.80;;;3.80;75.30;;;;;;4992377;28;20042;-79
2022/01/08 05:02:43;;;;;;;6.28;2.70;;;3.80;75.30;;;;;;4984385;28;20042;-79
2022/01/08 05:05:10;;;;;;;6.05;2.40;;;3.70;75.20;;;;;;4976301;28;20081;-79
2022/01/08 05:07:36;;;;;;;5.50;2.88;;;3.80;75.30;;;;;;4995913;28;20104;-79
2022/01/08 05:10:03;;;;;;;6.53;2.80;;;3.70;75.20;;;;;;4995309;28;20057;-79
2022/01/08 05:12:29;;;;;;;7.43;3.25;;;3.80;75.30;;;;;;4994439;28;20051;-79
2022/01/08 05:14:56;;;;;;;6.13;2.78;;;3.70;75.60;;;;;;4977078;28;20046;-79
2022/01/08 05:17:28;;;;;;;7.55;2.70;;;3.70;75.20;;;;;;4978610;28;20054;-79
2022/01/08 05:19:56;;;;;;;7.47;2.85;;;3.70;75.20;;;;;;4994070;28;20057;-79
2022/01/08 05:22:28;;;;;;;7.72;2.80;;;3.70;75.60;;;;;;4976100;28;20487;-80
2022/01/08 05:24:54;;;;;;;3.92;2.42;;;3.70;75.20;;;;;;4993869;28;20046;-79
2022/01/08 05:27:20;;;;;;;6.03;2.83;;;3.70;75.20;;;;;;4989434;28;20394;-79
2022/01/08 05:29:48;;;;;;;9.48;2.63;;;3.70;75.20;;;;;;4995507;28;20046;-79
2022/01/08 05:32:17;;;;;;;9.23;2.50;;;3.70;75.20;;;;;;4995116;28;20042;-79
2022/01/08 05:34:48;;;;;;;6.88;2.28;;;3.70;75.20;;;;;;4995160;28;20097;-79
2022/01/08 05:37:15;;;;;;;3.97;2.10;;;3.60;75.20;;;;;;4993990;28;20114;-79
2022/01/08 05:39:41;;;;;;;6.07;2.50;;;3.60;75.20;;;;;;4994666;28;20383;-79
2022/01/08 05:42:07;;;;;;;4.80;2.60;;;3.60;75.20;;;;;;4966003;28;20065;-78
2022/01/08 05:44:32;;;;;;;8.98;2.60;;;3.60;75.10;;;;;;4976428;28;20054;-79
2022/01/08 05:46:58;;;;;;;5.88;1.98;;;3.60;75.20;;;;;;4993826;28;20086;-78
2022/01/08 05:49:24;;;;;;;7.10;2.40;;;3.60;75.20;;;;;;4995206;28;20042;-79
2022/01/08 05:51:49;;;;;;;4.32;2.03;;;3.60;75.20;;;;;;4982858;28;20085;-79
2022/01/08 05:54:15;;;;;;;5.32;2.50;;;3.60;75.20;;;;;;4981699;28;20092;-79
2022/01/08 05:56:42;;;;;;;6.72;2.10;;;3.50;75.20;;;;;;4978614;28;20050;-79
2022/01/08 05:59:07;;;;;;;8.38;2.47;;;3.50;75.20;;;;;;4993182;28;20049;-79
2022/01/08 06:01:34;;;;;;;7.13;2.83;;;3.60;75.20;;;;;;4977427;28;20050;-79
2022/01/08 06:04:01;;;;;;;6.72;2.35;;;3.50;75.20;;;;;;4994265;28;20056;-79
2022/01/08 06:06:27;;;;;;;6.53;2.20;;;3.50;75.10;;;;;;4993438;28;20034;-79
2022/01/08 06:08:52;;;;;;;6.68;2.30;;;3.50;75.10;;;;;;4994482;28;20398;-79
2022/01/08 06:11:18;;;;;;;7.18;2.30;;;3.50;75.10;;;;;;4977342;28;20042;-80
2022/01/08 06:13:44;;;;;;;5.57;2.22;;;3.50;75.10;;;;;;4994673;28;20069;-78
2022/01/08 06:16:09;;;;;;;4.53;2.22;;;3.50;75.50;;;;;;4991479;28;20046;-79
2022/01/08 06:18:35;;;;;;;11.57;2.78;;;3.50;75.10;;;;;;4972971;28;20445;-79
2022/01/08 06:21:02;;;;;;;7.55;2.33;;;3.40;75.10;;;;;;4994656;28;20549;-78
2022/01/08 06:23:28;;;;;;;5.78;2.33;;;3.40;75.10;;;;;;4977607;28;20418;-79
2022/01/08 06:25:53;;;;;;;5.25;2.88;;;3.40;75.10;;;;;;4988991;28;20046;-78
2022/01/08 06:28:19;;;;;;;5.95;2.70;;;3.40;75.10;;;;;;4993370;28;20045;-78
2022/01/08 06:30:45;;;;;;;5.20;2.78;;;3.40;75.10;;;;;;4995414;28;20046;-78
2022/01/08 06:33:11;;;;;;;7.68;2.63;;;3.40;75.20;;;;;;4993068;28;20038;-79
2022/01/08 06:35:36;;;;;;;5.40;2.17;;;3.40;75.20;;;;;;4994504;28;20050;-78
2022/01/08 06:38:02;;;;;;;6.18;2.33;;;3.40;75.20;;;;;;4990928;28;20077;-79
2022/01/08 06:40:27;;;;;;;6.93;2.70;;;3.40;75.20;;;;;;4975892;28;20043;-79
2022/01/08 06:42:53;;;;;;;7.20;3.00;;;3.30;75.20;;;;;;4993248;28;20779;-78
2022/01/08 06:45:19;;;;;;;5.47;2.22;;;3.30;75.30;;;;;;4976403;28;20382;-79
2022/01/08 06:47:45;;;;;;;7.72;3.42;;;3.30;75.30;;;;;;4984088;28;20359;-79
2022/01/08 06:50:12;;;;;;;5.15;2.53;;;3.30;75.30;;;;;;4981792;28;20049;-79
2022/01/08 06:52:38;;;;;;;5.63;2.55;;;3.30;75.30;;;;;;4992497;28;20386;-79
2022/01/08 06:55:05;;;;;;;7.00;2.50;;;3.30;75.30;;;;;;4992844;28;20050;-79
2022/01/08 06:57:30;;;;;;;9.57;2.75;;;3.30;75.40;;;;;;4983264;28;20047;-79
2022/01/08 06:59:56;;;;;;;6.65;2.88;;;3.30;75.30;;;;;;4988762;28;20156;-79
2022/01/08 07:02:22;;;;;;;7.60;2.70;;;3.30;75.30;;;;;;4975530;28;20069;-79
2022/01/08 07:04:47;;;;;;;7.75;2.80;;;3.30;75.30;;;;;;4976793;28;20482;-78
2022/01/08 07:07:13;;;;;;;7.15;2.80;;;3.30;75.30;;;;;;4993363;28;20461;-78
2022/01/08 07:09:38;;;;;;;6.25;2.30;;;3.20;75.60;;;;;;4992482;28;20050;-78
2022/01/08 07:12:04;;;;;;;7.18;2.75;;;3.20;75.30;;;;;;4975701;28;20398;-78
2022/01/08 07:14:31;;;;;;;5.40;2.47;;;3.20;75.30;;;;;;4979620;28;20482;-79
2022/01/08 07:16:57;;;;;;;6.95;2.47;;;3.20;75.30;;;;;;4993676;28;20042;-78
2022/01/08 07:19:23;;;;;;;7.15;3.05;;;3.20;75.30;;;;;;4987824;28;20085;-78
2022/01/08 07:21:49;;;;;;;6.18;3.05;;;3.20;75.40;;;;;;4993921;28;20078;-79
2022/01/08 07:24:15;;;;;;;4.68;2.20;;;3.20;75.30;;;;;;4975937;28;20486;-79
2022/01/08 07:26:41;;;;;;;7.88;2.45;;;3.20;75.40;;;;;;4993764;28;20554;-79
2022/01/08 07:29:07;;;;;;;6.47;2.58;;;3.20;75.40;;;;;;4991838;28;20177;-79
2022/01/08 07:31:32;;;;;;;7.68;3.15;;;3.20;75.50;;;;;;4976307;28;20069;-79
2022/01/08 07:33:58;;;;;;;6.80;2.83;;;3.20;75.50;;;;;;4993102;28;20050;-78
2022/01/08 07:36:24;;;;;;;6.20;2.30;;;3.20;75.50;;;;;;4993841;28;20042;-79
2022/01/08 07:38:50;;;;;;;9.02;2.90;;;3.20;75.50;;;;;;4983389;28;20491;-79
2022/01/08 07:41:16;;;;;;;8.23;2.55;;;3.10;75.50;;;;;;4972873;28;20042;-80
2022/01/08 07:43:41;;;;;;;5.10;2.05;;;3.10;75.50;;;;;;4969918;28;20391;-79
2022/01/08 07:46:07;;;;;;;9.43;2.78;;;3.10;75.40;;;;;;4985383;28;20038;-79
2022/01/08 07:48:33;;;;;;;6.93;2.22;;;3.10;75.50;;;;;;4978768;28;20046;-80
2022/01/08 07:50:59;;;;;;;6.78;2.30;;;3.10;75.50;;;;;;4996939;28;20030;-80
2022/01/08 07:53:25;;;;;;;7.53;2.20;;;3.10;75.50;;;;;;4992408;28;20053;-79
2022/01/08 07:55:50;;;;;;;5.60;2.08;;;3.10;75.50;;;;;;4978866;28;20401;-80
2022/01/08 07:58:20;;;;;;;11.88;3.63;;;3.10;75.60;;;;;;4994919;28;20042;-80
2022/01/08 08:00:47;;;;;;;5.88;2.20;;;3.10;75.60;;;;;;4978720;28;20096;-79
2022/01/08 08:03:13;;;;;;;5.40;2.10;;;3.10;75.70;;;;;;4995297;28;20057;-80
2022/01/08 08:05:39;;;;;;;6.78;2.15;;;3.10;75.70;;;;;;4978311;28;20042;-79
2022/01/08 08:08:04;;;;;;;5.00;2.00;;;3.10;75.70;;;;;;4996142;28;20038;-79
2022/01/08 08:10:31;;;;;;;7.10;2.10;;;3.10;75.60;;;;;;4987369;28;20105;-79
2022/01/08 08:12:56;;;;;;;5.60;2.30;;;3.00;76.00;;;;;;4996783;28;20042;-79
2022/01/08 08:15:23;;;;;;;9.68;2.42;;;3.00;75.60;;;;;;4993650;28;20038;-80
2022/01/08 08:17:48;;;;;;;10.05;2.63;;;3.00;75.60;;;;;;4995692;28;20512;-79
2022/01/08 08:20:14;;;;;;;6.28;2.03;;;3.00;76.00;;;;;;4977783;28;20054;-79
2022/01/08 08:22:40;;;;;;;4.88;2.20;;;3.00;75.60;;;;;;4996690;28;20045;-80
2022/01/08 08:25:08;;;;;;;6.75;2.28;;;3.00;75.70;;;;;;4981182;28;20521;-78
2022/01/08 08:27:34;;;;;;;8.23;2.85;;;3.00;75.80;;;;;;4990388;28;20039;-79
2022/01/08 08:29:59;;;;;;;4.97;1.98;;;3.10;75.90;;;;;;4966076;28;20061;-78
2022/01/08 08:32:25;;;;;;;8.27;3.20;;;3.10;76.00;;;;;;4996286;28;20069;-80
2022/01/08 08:34:51;;;;;;;10.15;3.08;;;3.10;76.00;;;;;;4987301;28;20066;-80
2022/01/08 08:37:17;;;;;;;8.20;2.97;;;3.10;76.10;;;;;;4985600;28;20474;-80
2022/01/08 08:39:43;;;;;;;7.65;2.88;;;3.10;76.10;;;;;;4987529;28;20055;-80
2022/01/08 08:42:08;;;;;;;10.93;3.60;;;3.10;76.10;;;;;;4973032;28;20836;-80
2022/01/08 08:44:34;;;;;;;9.73;3.42;;;3.10;76.20;;;;;;4979372;28;20069;-80
2022/01/08 08:47:00;;;;;;;9.02;3.10;;;3.10;76.20;;;;;;4993005;28;20133;-80
2022/01/08 08:49:27;;;;;;;8.05;3.67;;;3.20;76.40;;;;;;4995531;28;20038;-80
2022/01/08 08:51:53;;;;;;;10.43;3.33;;;3.10;76.40;;;;;;4996411;28;20053;-80
2022/01/08 08:54:19;;;;;;;5.63;2.83;;;3.20;76.30;;;;;;4993383;28;20449;-80
2022/01/08 08:56:45;;;;;;;9.95;3.67;;;3.20;76.30;;;;;;4960059;28;20130;-78
2022/01/08 08:59:11;;;;;;;11.90;3.63;;;3.20;76.30;;;;;;4994532;28;20044;-78
2022/01/08 09:01:37;;;;;;;8.82;3.00;;;3.20;76.30;;;;;;4991288;28;20049;-79
2022/01/08 09:04:03;;;;;;;8.95;3.72;;;3.30;76.40;;;;;;4995010;28;20054;-78
2022/01/08 09:06:30;;;;;;;9.73;3.33;;;3.30;76.40;;;;;;4993570;28;20038;-78
2022/01/08 09:08:56;;;;;;;10.25;3.65;;;3.30;76.30;;;;;;4994898;28;20050;-79
2022/01/08 09:11:22;;;;;;;7.10;3.50;;;3.30;76.30;;;;;;4975766;28;20042;-79
2022/01/08 09:13:47;;;;;;;10.75;4.13;;;3.40;76.30;;;;;;4975983;28;20078;-79
2022/01/08 09:16:13;;;;;;;10.48;3.97;;;3.40;76.20;;;;;;4994310;28;20484;-79
2022/01/08 09:18:41;;;;;;;12.85;4.00;;;3.40;76.20;;;;;;4994648;28;20054;-78
2022/01/08 09:21:07;;;;;;;10.73;4.05;;;3.40;76.10;;;;;;4983856;28;20410;-79
2022/01/08 09:23:33;;;;;;;6.78;3.70;;;3.40;76.10;;;;;;4992392;28;20126;-79
2022/01/08 09:25:59;;;;;;;7.45;3.67;;;3.40;76.10;;;;;;4967626;28;20053;-78
2022/01/08 09:28:26;;;;;;;8.73;3.58;;;3.40;76.00;;;;;;4994701;28;20042;-79
2022/01/08 09:30:52;;;;;;;12.30;3.83;;;3.50;76.10;;;;;;4994576;28;20048;-79
2022/01/08 09:33:17;;;;;;;7.97;3.55;;;3.50;76.00;;;;;;4977858;28;20466;-79
2022/01/08 09:35:43;;;;;;;9.43;4.40;;;3.50;75.90;;;;;;4993252;28;20038;-79
2022/01/08 09:38:09;;;;;;;8.70;3.60;;;3.50;75.90;;;;;;4984580;28;20438;-79
2022/01/08 09:40:35;;;;;;;6.82;3.88;;;3.50;75.80;;;;;;4990111;28;20054;-79
2022/01/08 09:43:02;;;;;;;9.43;4.50;;;3.50;75.70;;;;;;4994403;28;20042;-79
2022/01/08 09:45:28;;;;;;;7.68;3.88;;;3.50;75.70;;;;;;4971608;28;20062;-79
2022/01/08 09:47:54;;;;;;;8.80;3.95;;;3.60;75.70;;;;;;4977420;28;20043;-80
2022/01/08 09:50:20;;;;;;;7.50;4.18;;;3.60;75.70;;;;;;4994283;28;20457;-80
2022/01/08 09:52:45;;;;;;;10.27;4.75;;;3.60;75.60;;;;;;4994568;28;20038;-80
2022/01/08 09:55:11;;;;;;;8.63;4.25;;;3.60;75.60;;;;;;4976219;28;20039;-81
2022/01/08 09:57:36;;;;;;;9.55;4.45;;;3.60;75.50;;;;;;4976861;28;20422;-80
2022/01/08 10:00:12;;;;;;;11.90;4.50;;;3.60;75.50;;;;;;4977250;28;20042;-80
2022/01/08 10:02:38;;;;;;;10.48;4.57;;;3.70;75.70;;;;;;4992102;28;20038;-80
2022/01/08 10:05:09;;;;;;;12.05;5.78;;;3.70;75.60;;;;;;4976487;28;20508;-80
2022/01/08 10:07:35;;;;;;;10.38;4.65;;;3.70;75.60;;;;;;4994759;28;20276;-80
2022/01/08 10:10:17;;;;;;;11.23;5.00;;;3.70;75.50;;;;;;4985099;28;20098;-80
2022/01/08 10:12:54;;;;;;;9.32;4.97;;;3.70;75.60;;;;;;4983750;28;20509;-80
2022/01/08 10:18:24;;;;;;;12.23;5.43;;;3.80;75.70;;;;;;4981038;28;20054;-80
2022/01/08 10:20:51;;;;;;;9.50;4.90;;;3.90;75.90;;;;;;4970406;28;20046;-79
2022/01/08 10:23:22;;;;;;;8.77;4.40;;;3.90;75.90;;;;;;4976488;28;20043;-79
2022/01/08 10:26:01;;;;;;;9.02;4.40;;;4.00;76.00;;;;;;4994320;28;20056;-80
2022/01/08 10:28:47;;;;;;;11.90;4.90;;;4.00;75.90;;;;;;4994516;28;20069;-80
2022/01/08 10:31:32;;;;;;;18.23;5.82;;;4.10;75.90;;;;;;4982071;28;20098;-80
2022/01/08 10:34:01;;;;;;;12.70;5.38;;;4.10;75.80;;;;;;4963482;28;20050;-79
2022/01/08 10:36:32;;;;;;;14.25;4.47;;;4.20;75.80;;;;;;4976944;28;20073;-79
2022/01/08 10:39:04;;;;;;;11.05;4.75;;;4.20;75.80;;;;;;4967479;28;20401;-80
2022/01/08 10:41:30;;;;;;;13.45;5.68;;;4.20;75.60;;;;;;4994935;28;20393;-79
2022/01/08 10:44:09;;;;;;;9.20;4.75;;;4.20;75.50;;;;;;4991004;28;20030;-79
2022/01/08 10:46:35;;;;;;;11.73;4.72;;;4.20;75.50;;;;;;4976458;28;20065;-79
2022/01/08 10:49:02;;;;;;;12.88;4.80;;;4.30;75.50;;;;;;4994000;28;20382;-79
2022/01/08 10:51:38;;;;;;;14.93;5.72;;;4.30;75.40;;;;;;4997863;28;20042;-79
2022/01/08 10:54:12;;;;;;;26.75;11.70;;;4.30;75.30;;;;;;4994424;28;20042;-80
2022/01/08 10:56:45;;;;;;;18.95;10.75;;;4.30;75.30;;;;;;4994117;28;20047;-80
2022/01/08 10:59:19;;;;;;;20.23;13.10;;;4.30;75.30;;;;;;4993046;28;20050;-81
2022/01/08 11:01:56;;;;;;;14.38;7.20;;;4.40;75.40;;;;;;4985312;28;20038;-84
2022/01/08 11:04:41;;;;;;;15.70;8.63;;;4.40;75.40;;;;;;4993763;28;20050;-81
2022/01/08 11:07:16;;;;;;;10.98;6.90;;;4.40;75.50;;;;;;4984127;28;20057;-83
2022/01/08 11:09:44;;;;;;;14.75;6.57;;;4.40;75.50;;;;;;4963316;28;20059;-85
2022/01/08 11:12:17;;;;;;;16.08;7.38;;;4.50;75.40;;;;;;4978211;28;20065;-88
2022/01/08 11:17:24;;;;;;;24.23;12.02;;;4.50;75.20;;;;;;4970464;28;20085;-86
2022/01/08 11:19:55;;;;;;;20.00;7.95;;;4.50;75.20;;;;;;4976500;28;20050;-82
2022/01/08 11:22:27;;;;;;;16.98;9.88;;;4.50;75.20;;;;;;4992878;28;20076;-84
2022/01/08 11:25:03;;;;;;;17.08;11.50;;;4.50;75.20;;;;;;4980165;28;20050;-84
2022/01/08 11:27:34;;;;;;;27.10;15.00;;;4.50;75.20;;;;;;4988465;28;20122;-83
2022/01/08 11:30:07;;;;;;;22.85;13.65;;;4.50;75.20;;;;;;4991775;28;20177;-83
2022/01/08 11:32:36;;;;;;;26.98;15.15;;;4.50;75.20;;;;;;4967224;28;20046;-83
2022/01/08 11:35:06;;;;;;;17.23;10.05;;;4.50;75.20;;;;;;4995604;28;20038;-82
2022/01/08 11:37:32;;;;;;;18.70;11.88;;;4.50;75.30;;;;;;4979214;28;20051;-82
2022/01/08 11:40:05;;;;;;;15.85;10.30;;;4.60;75.40;;;;;;4991366;28;20050;-83
2022/01/08 11:42:34;;;;;;;16.92;10.45;;;4.60;75.50;;;;;;4970277;28;20042;-83
2022/01/08 11:45:01;;;;;;;26.30;10.63;;;4.60;75.60;;;;;;4990363;28;20161;-82
2022/01/08 11:47:29;;;;;;;18.92;10.02;;;4.70;75.70;;;;;;4989999;28;20438;-81
2022/01/08 11:49:57;;;;;;;17.20;9.95;;;4.70;75.60;;;;;;4973521;28;20074;-81
2022/01/08 11:52:23;;;;;;;47.55;23.65;;;4.70;75.60;;;;;;4975595;28;20528;-81
2022/01/08 11:54:52;;;;;;;28.48;14.57;;;4.80;75.60;;;;;;4975072;28;20072;-81
2022/01/08 11:57:29;;;;;;;47.63;23.88;;;4.80;75.60;;;;;;4991624;28;20123;-81
2022/01/08 11:59:58;;;;;;;37.15;22.45;;;4.80;75.60;;;;;;4985349;28;20051;-81
2022/01/08 12:02:44;;;;;;;22.55;15.93;;;4.80;75.60;;;;;;4995481;28;20054;-80
2022/01/08 12:05:13;;;;;;;32.58;19.65;;;4.90;75.70;;;;;;4993713;28;20375;-81
2022/01/08 12:07:44;;;;;;;16.27;12.48;;;4.90;75.60;;;;;;4967875;28;20089;-80
2022/01/08 12:10:24;;;;;;;23.80;16.23;;;4.90;75.40;;;;;;4997288;28;20065;-79
2022/01/08 12:12:59;;;;;;;20.23;14.57;;;5.00;75.40;;;;;;4990301;28;20057;-78
2022/01/08 12:15:40;;;;;;;22.50;14.57;;;4.90;75.30;;;;;;4972120;28;20409;-78
2022/01/08 12:18:09;;;;;;;25.75;15.50;;;5.00;75.30;;;;;;4979729;28;20046;-79
2022/01/08 12:20:48;;;;;;;25.10;14.63;;;5.00;75.30;;;;;;4979901;28;20122;-78
2022/01/08 12:23:32;;;;;;;24.33;15.27;;;5.00;75.20;;;;;;4992645;28;20046;-78
2022/01/08 12:26:20;;;;;;;26.40;15.48;;;5.00;75.20;;;;;;4991823;28;20097;-77
2022/01/08 12:28:46;;;;;;;20.27;13.70;;;5.10;75.30;;;;;;4986886;28;20699;-78
2022/01/08 12:31:25;;;;;;;18.65;12.93;;;5.10;75.30;;;;;;4978861;28;20540;-78
2022/01/08 12:34:30;;;;;;;23.00;14.27;;;5.10;75.20;;;;;;4985285;28;20058;-79
2022/01/08 12:36:56;;;;;;;17.92;13.23;;;5.10;75.00;;;;;;4956161;28;20104;-78
2022/01/08 12:39:44;;;;;;;22.13;14.50;;;5.10;74.90;;;;;;4956370;28;20050;-78
2022/01/08 12:42:22;;;;;;;19.13;14.15;;;5.10;74.90;;;;;;4992378;28;20486;-78
2022/01/08 12:45:10;;;;;;;20.00;14.25;;;5.10;74.90;;;;;;4974990;28;20054;-79
2022/01/08 12:48:09;;;;;;;19.30;13.23;;;5.10;74.90;;;;;;4974493;28;20053;-79
2022/01/08 12:50:37;;;;;;;17.98;12.10;;;5.10;74.70;;;;;;4973987;28;20760;-80
2022/01/08 12:53:06;;;;;;;15.02;12.15;;;5.10;74.80;;;;;;4963139;28;20070;-79
2022/01/08 12:55:36;;;;;;;20.55;13.27;;;5.10;74.70;;;;;;4987923;28;20038;-78
2022/01/08 12:58:11;;;;;;;18.10;11.95;;;5.10;74.70;;;;;;4966449;28;20051;-79
2022/01/08 13:00:58;;;;;;;15.50;10.90;;;5.20;74.60;;;;;;4992855;28;20725;-78
2022/01/08 13:03:25;;;;;;;15.70;9.57;;;5.20;74.40;;;;;;4991632;28;20481;-78
2022/01/08 13:05:51;;;;;;;15.15;9.60;;;5.20;74.40;;;;;;4975080;28;20054;-82
2022/01/08 13:08:47;;;;;;;14.30;9.93;;;5.10;74.00;;;;;;4974933;28;20129;-79
2022/01/08 13:11:16;;;;;;;15.40;9.10;;;5.20;73.80;;;;;;4919710;29;20062;-78
2022/01/08 13:13:49;;;;;;;12.40;9.07;;;5.20;74.00;;;;;;4926786;29;20059;-78
2022/01/08 13:16:14;;;;;;;16.15;8.50;;;5.20;73.80;;;;;;4912756;29;20056;-79
2022/01/08 13:18:41;;;;;;;16.48;10.27;;;5.20;73.70;;;;;;4912485;29;20413;-79
2022/01/08 13:21:09;;;;;;;17.25;9.35;;;5.20;73.50;;;;;;4896986;29;20123;-79
2022/01/08 13:23:50;;;;;;;14.60;9.27;;;5.20;73.50;;;;;;4899099;29;20072;-78
2022/01/08 13:29:21;;;;;;;12.48;8.93;;;5.20;73.40;;;;;;4912545;29;20197;-79